Time;durP1;ratioP1;P1;durP2;ratioP2;P2;SDS_P1;SDS_P2;PMS_P1;PMS_P2;Temp;Humidity;BMP_temperature;BMP_pressure;BME280_temperature;BME280_humidity;BME280_pressure;Samples;Min_cycle;Max_cycle;Signal;HPM_P1;HPM_P2
2022/06/19 00:00:24;;;;;;;8.60;6.75;;;;;;;;;;2073655;28;20165;-53
2022/06/19 00:01:24;;;;;;;6.32;5.70;;;;;;;;;;2075211;28;20239;-53
2022/06/19 00:02:25;;;;;;;4.38;2.35;;;;;;;;;;2072298;28;20176;-52
2022/06/19 00:03:31;;;;;;;3.85;3.25;;;;;;;;;;2074340;28;20237;-56
2022/06/19 00:04:32;;;;;;;5.50;3.55;;;;;;;;;;2067084;28;20861;-53
2022/06/19 00:05:32;;;;;;;5.50;3.28;;;;;;;;;;2066351;28;20162;-54
2022/06/19 00:06:34;;;;;;;3.97;3.60;;;;;;;;;;2065842;28;20176;-52
2022/06/19 00:07:34;;;;;;;7.20;4.00;;;;;;;;;;2066032;28;20191;-50
2022/06/19 00:08:35;;;;;;;4.03;2.78;;;;;;;;;;2065548;28;20273;-58
2022/06/19 00:09:35;;;;;;;4.32;3.85;;;;;;;;;;2065134;28;20182;-55
2022/06/19 00:10:35;;;;;;;4.35;3.28;;;;;;;;;;2065675;28;20173;-58
2022/06/19 00:11:39;;;;;;;3.08;2.78;;;;;;;;;;2065300;28;20274;-57
2022/06/19 00:12:39;;;;;;;7.65;2.90;;;;;;;;;;2064433;28;20531;-49
2022/06/19 00:13:40;;;;;;;3.70;2.60;;;;;;;;;;2064854;28;20187;-59
2022/06/19 00:14:40;;;;;;;5.15;3.22;;;;;;;;;;2070609;28;20256;-57
2022/06/19 00:15:40;;;;;;;6.20;3.22;;;;;;;;;;2072825;28;20606;-53
2022/06/19 00:16:41;;;;;;;4.95;2.78;;;;;;;;;;2073053;28;20570;-55
2022/06/19 00:17:41;;;;;;;3.58;3.13;;;;;;;;;;2073221;28;20170;-53
2022/06/19 00:18:42;;;;;;;3.33;2.80;;;;;;;;;;2067869;28;20663;-55
2022/06/19 00:19:42;;;;;;;4.43;2.28;;;;;;;;;;2065045;28;20645;-55
2022/06/19 00:20:42;;;;;;;3.28;2.20;;;;;;;;;;2069195;28;20679;-56
2022/06/19 00:21:44;;;;;;;3.65;2.72;;;;;;;;;;2070710;28;20650;-55
2022/06/19 00:22:44;;;;;;;4.32;2.67;;;;;;;;;;2072568;28;20165;-52
2022/06/19 00:23:45;;;;;;;3.50;2.60;;;;;;;;;;2072285;28;20223;-57
2022/06/19 00:24:46;;;;;;;4.22;2.50;;;;;;;;;;2064478;28;20178;-56
2022/06/19 00:25:46;;;;;;;6.88;3.10;;;;;;;;;;2070290;28;20189;-53
2022/06/19 00:26:46;;;;;;;4.32;2.90;;;;;;;;;;2072926;28;20165;-53
2022/06/19 00:27:47;;;;;;;8.32;2.72;;;;;;;;;;2064044;28;20216;-57
2022/06/19 00:28:47;;;;;;;5.25;3.00;;;;;;;;;;2064098;28;20732;-58
2022/06/19 00:29:47;;;;;;;2.97;2.67;;;;;;;;;;2064791;28;20240;-52
2022/06/19 00:30:48;;;;;;;3.92;2.35;;;;;;;;;;2064838;28;20659;-49
2022/06/19 00:32:58;;;;;;;7.03;2.75;;;;;;;;;;2070137;28;20236;-57
2022/06/19 00:33:59;;;;;;;3.78;2.53;;;;;;;;;;2072669;28;20204;-56
2022/06/19 00:34:59;;;;;;;4.15;2.65;;;;;;;;;;2074750;28;20239;-52
2022/06/19 00:35:59;;;;;;;8.75;3.13;;;;;;;;;;2074966;28;20192;-54
2022/06/19 00:37:01;;;;;;;5.57;3.00;;;;;;;;;;2078524;28;20219;-56
2022/06/19 00:38:02;;;;;;;2.90;2.65;;;;;;;;;;2071017;28;20199;-53
2022/06/19 00:39:02;;;;;;;4.40;2.75;;;;;;;;;;2074731;28;20173;-58
2022/06/19 00:40:04;;;;;;;3.75;2.83;;;;;;;;;;2074614;28;20188;-56
2022/06/19 00:41:04;;;;;;;4.18;2.90;;;;;;;;;;2074799;28;20324;-54
2022/06/19 00:42:08;;;;;;;4.47;2.72;;;;;;;;;;2070756;28;20221;-54
2022/06/19 00:43:09;;;;;;;9.45;3.58;;;;;;;;;;2071361;28;20490;-56
2022/06/19 00:44:10;;;;;;;4.07;2.25;;;;;;;;;;2074419;28;20220;-54
2022/06/19 00:45:52;;;;;;;4.35;2.72;;;;;;;;;;2075428;28;20544;-55
2022/06/19 00:46:52;;;;;;;5.10;2.55;;;;;;;;;;2043871;29;20167;-54
2022/06/19 00:47:53;;;;;;;6.15;2.85;;;;;;;;;;2043536;29;20172;-58
2022/06/19 00:48:53;;;;;;;8.75;2.85;;;;;;;;;;2043038;29;20198;-55
2022/06/19 00:49:53;;;;;;;5.22;2.78;;;;;;;;;;2044759;29;20211;-54
2022/06/19 00:50:54;;;;;;;5.15;2.97;;;;;;;;;;2043101;29;20218;-55
2022/06/19 00:51:58;;;;;;;5.60;2.67;;;;;;;;;;2042433;29;20287;-55
2022/06/19 00:52:59;;;;;;;4.10;2.67;;;;;;;;;;2074912;28;20189;-57
2022/06/19 00:54:00;;;;;;;5.57;3.05;;;;;;;;;;2075870;28;20173;-55
2022/06/19 00:55:03;;;;;;;5.30;2.80;;;;;;;;;;2084518;28;20695;-53
2022/06/19 00:56:04;;;;;;;6.75;3.10;;;;;;;;;;2084811;28;20176;-55
2022/06/19 00:57:04;;;;;;;4.47;3.03;;;;;;;;;;2076564;28;20669;-55
2022/06/19 00:58:10;;;;;;;6.65;3.15;;;;;;;;;;2076655;28;20245;-59
2022/06/19 00:59:11;;;;;;;5.82;3.30;;;;;;;;;;2077846;28;20203;-55
2022/06/19 01:00:24;;;;;;;4.60;2.90;;;;;;;;;;2077111;28;20177;-55
2022/06/19 01:01:27;;;;;;;4.53;2.78;;;;;;;;;;2076520;28;20154;-53
2022/06/19 01:02:27;;;;;;;9.13;3.05;;;;;;;;;;2076685;28;20189;-58
2022/06/19 01:03:40;;;;;;;5.13;2.42;;;;;;;;;;2075905;28;20610;-54
2022/06/19 01:04:43;;;;;;;6.90;3.03;;;;;;;;;;2075940;28;20180;-53
2022/06/19 01:05:44;;;;;;;5.55;3.72;;;;;;;;;;2078900;28;20177;-53
2022/06/19 01:06:45;;;;;;;7.85;3.22;;;;;;;;;;2077648;28;20315;-54
2022/06/19 01:07:45;;;;;;;11.32;3.03;;;;;;;;;;2077684;28;20177;-58
2022/06/19 01:08:47;;;;;;;9.35;3.22;;;;;;;;;;2077140;28;20192;-55
2022/06/19 01:09:48;;;;;;;7.43;3.25;;;;;;;;;;2077272;28;20169;-58
2022/06/19 01:10:49;;;;;;;8.95;4.82;;;;;;;;;;2077492;28;20530;-58
2022/06/19 01:11:50;;;;;;;11.57;4.47;;;;;;;;;;2079898;28;20538;-58
2022/06/19 01:12:51;;;;;;;6.70;4.15;;;;;;;;;;2077519;28;20184;-56
2022/06/19 01:13:51;;;;;;;6.88;3.70;;;;;;;;;;2068615;28;20174;-55
2022/06/19 01:14:56;;;;;;;6.85;5.18;;;;;;;;;;2078423;28;20213;-58
2022/06/19 01:15:57;;;;;;;3.30;2.70;;;;;;;;;;2077273;28;20208;-57
2022/06/19 01:16:59;;;;;;;7.03;4.30;;;;;;;;;;2077523;28;20170;-57
2022/06/19 01:18:03;;;;;;;8.40;5.72;;;;;;;;;;2078403;28;20470;-58
2022/06/19 01:19:04;;;;;;;13.55;7.75;;;;;;;;;;2078475;28;20172;-53
2022/06/19 01:20:07;;;;;;;5.75;3.58;;;;;;;;;;2079030;28;20227;-56
2022/06/19 01:21:07;;;;;;;10.05;4.50;;;;;;;;;;2078632;28;20185;-54
2022/06/19 01:22:13;;;;;;;7.82;3.75;;;;;;;;;;2079753;28;20274;-56
2022/06/19 01:23:24;;;;;;;9.10;3.33;;;;;;;;;;2076213;28;20216;-55
2022/06/19 01:24:48;;;;;;;5.50;3.58;;;;;;;;;;2075750;28;20188;-54
2022/06/19 01:25:49;;;;;;;9.80;3.50;;;;;;;;;;2070674;28;20193;-54
2022/06/19 01:26:52;;;;;;;11.18;3.72;;;;;;;;;;2073639;28;20203;-55
2022/06/19 01:29:14;;;;;;;10.27;4.43;;;;;;;;;;2074314;28;20169;-52
2022/06/19 01:30:15;;;;;;;5.72;2.90;;;;;;;;;;2073985;28;20252;-55
2022/06/19 01:31:17;;;;;;;7.85;3.25;;;;;;;;;;2074465;28;20161;-56
2022/06/19 01:32:17;;;;;;;7.70;4.03;;;;;;;;;;2073594;28;20212;-56
2022/06/19 01:33:19;;;;;;;10.23;3.97;;;;;;;;;;2073566;28;20242;-54
2022/06/19 01:34:29;;;;;;;16.20;3.90;;;;;;;;;;2073477;28;20169;-56
2022/06/19 01:35:31;;;;;;;9.57;3.95;;;;;;;;;;2073923;28;20204;-55
2022/06/19 01:36:32;;;;;;;7.32;3.40;;;;;;;;;;2073883;28;20260;-53
2022/06/19 01:37:33;;;;;;;9.30;4.07;;;;;;;;;;2074170;28;20165;-56
2022/06/19 01:38:34;;;;;;;7.68;3.33;;;;;;;;;;2074147;28;20181;-52
2022/06/19 01:39:37;;;;;;;12.32;4.03;;;;;;;;;;2074269;28;20181;-58
2022/06/19 01:40:39;;;;;;;10.90;3.97;;;;;;;;;;2073477;28;20264;-54
2022/06/19 01:41:39;;;;;;;7.70;3.92;;;;;;;;;;2074081;28;20187;-55
2022/06/19 01:42:40;;;;;;;9.50;3.83;;;;;;;;;;2073776;28;20197;-56
2022/06/19 01:43:40;;;;;;;7.50;4.60;;;;;;;;;;2073971;28;20199;-53
2022/06/19 01:44:42;;;;;;;7.85;3.70;;;;;;;;;;2072108;28;20168;-56
2022/06/19 01:45:48;;;;;;;11.98;4.07;;;;;;;;;;2065254;28;20178;-54
2022/06/19 01:46:49;;;;;;;8.20;3.42;;;;;;;;;;2065960;28;20606;-53
2022/06/19 01:47:50;;;;;;;8.73;3.78;;;;;;;;;;2073325;28;20173;-54
2022/06/19 01:48:50;;;;;;;6.85;3.78;;;;;;;;;;2073491;28;20532;-55
2022/06/19 01:49:52;;;;;;;9.70;3.75;;;;;;;;;;2067754;28;20244;-56
2022/06/19 01:50:53;;;;;;;6.93;3.83;;;;;;;;;;2073947;28;20172;-55
2022/06/19 01:51:53;;;;;;;7.57;3.53;;;;;;;;;;2073505;28;20173;-55
2022/06/19 01:52:58;;;;;;;12.45;4.30;;;;;;;;;;2074068;28;20208;-54
2022/06/19 01:54:07;;;;;;;11.52;4.50;;;;;;;;;;2073083;28;20223;-54
2022/06/19 01:55:13;;;;;;;11.27;4.50;;;;;;;;;;2073730;28;20242;-54
2022/06/19 01:56:14;;;;;;;10.38;3.75;;;;;;;;;;2073755;28;20207;-56
2022/06/19 01:57:14;;;;;;;13.05;4.25;;;;;;;;;;2072856;28;20646;-55
2022/06/19 01:58:16;;;;;;;7.63;3.42;;;;;;;;;;2073802;28;20177;-53
2022/06/19 01:59:16;;;;;;;10.48;3.83;;;;;;;;;;2074239;28;20169;-55
2022/06/19 02:00:22;;;;;;;7.68;4.45;;;;;;;;;;2073517;28;20165;-57
2022/06/19 02:01:26;;;;;;;10.85;4.32;;;;;;;;;;2073713;28;20150;-55
2022/06/19 02:02:28;;;;;;;8.57;3.88;;;;;;;;;;2075494;28;20185;-55
2022/06/19 02:03:34;;;;;;;9.95;4.47;;;;;;;;;;2078981;28;20221;-54
2022/06/19 02:04:34;;;;;;;12.25;4.00;;;;;;;;;;2080071;28;20680;-55
2022/06/19 02:05:36;;;;;;;6.90;3.55;;;;;;;;;;2072478;28;20173;-53
2022/06/19 02:06:41;;;;;;;10.05;4.00;;;;;;;;;;2067946;28;20224;-52
2022/06/19 02:07:42;;;;;;;9.43;3.80;;;;;;;;;;2073841;28;20247;-53
2022/06/19 02:08:43;;;;;;;10.70;3.90;;;;;;;;;;2072806;28;20199;-57
2022/06/19 02:09:44;;;;;;;7.75;3.92;;;;;;;;;;2065591;28;20174;-55
2022/06/19 02:10:45;;;;;;;11.73;3.70;;;;;;;;;;2065784;28;20181;-56
2022/06/19 02:11:45;;;;;;;11.70;3.97;;;;;;;;;;2066771;28;20170;-55
2022/06/19 02:12:45;;;;;;;7.07;3.70;;;;;;;;;;2064882;28;20612;-54
2022/06/19 02:13:46;;;;;;;7.15;3.35;;;;;;;;;;2071157;28;20642;-55
2022/06/19 02:14:46;;;;;;;8.07;3.88;;;;;;;;;;2066321;28;20181;-56
2022/06/19 02:15:48;;;;;;;7.78;3.50;;;;;;;;;;2073671;28;20626;-54
2022/06/19 02:16:48;;;;;;;8.50;3.88;;;;;;;;;;2074051;28;20173;-56
2022/06/19 02:17:51;;;;;;;7.03;3.28;;;;;;;;;;2073995;28;20208;-52
2022/06/19 02:18:53;;;;;;;8.88;3.55;;;;;;;;;;2073791;28;20169;-59
2022/06/19 02:19:53;;;;;;;12.02;3.95;;;;;;;;;;2074116;28;20592;-52
2022/06/19 02:20:53;;;;;;;8.43;3.17;;;;;;;;;;2074105;28;20275;-47
2022/06/19 02:21:55;;;;;;;8.95;4.05;;;;;;;;;;2073843;28;20618;-54
2022/06/19 02:22:57;;;;;;;10.38;3.92;;;;;;;;;;2074004;28;20184;-54
2022/06/19 02:23:57;;;;;;;7.45;3.58;;;;;;;;;;2073073;28;20267;-59
2022/06/19 02:24:57;;;;;;;8.40;3.65;;;;;;;;;;2073129;28;20194;-54
2022/06/19 02:25:58;;;;;;;10.35;3.92;;;;;;;;;;2073471;28;20180;-53
2022/06/19 02:27:00;;;;;;;8.93;3.35;;;;;;;;;;2073672;28;20165;-54
2022/06/19 02:28:01;;;;;;;11.20;3.80;;;;;;;;;;2073636;28;20189;-55
2022/06/19 02:29:03;;;;;;;11.65;3.30;;;;;;;;;;2072807;28;20176;-53
2022/06/19 02:30:05;;;;;;;9.02;3.47;;;;;;;;;;2073664;28;20169;-51
2022/06/19 02:31:09;;;;;;;11.85;3.25;;;;;;;;;;2073645;28;20272;-55
2022/06/19 02:32:16;;;;;;;9.13;3.95;;;;;;;;;;2073596;28;20658;-52
2022/06/19 02:33:18;;;;;;;9.45;3.78;;;;;;;;;;2073428;28;20672;-57
2022/06/19 02:34:31;;;;;;;8.93;3.80;;;;;;;;;;2064934;28;20173;-53
2022/06/19 02:35:31;;;;;;;7.35;3.70;;;;;;;;;;2072943;28;20184;-56
2022/06/19 02:36:42;;;;;;;6.35;3.05;;;;;;;;;;2072934;28;20716;-55
2022/06/19 02:37:45;;;;;;;5.05;3.17;;;;;;;;;;2064944;28;20186;-50
2022/06/19 02:38:45;;;;;;;5.93;3.13;;;;;;;;;;2061107;28;20165;-56
2022/06/19 02:39:53;;;;;;;9.32;3.42;;;;;;;;;;2073109;28;20552;-50
2022/06/19 02:41:04;;;;;;;9.27;3.20;;;;;;;;;;2080038;28;20653;-54
2022/06/19 02:42:19;;;;;;;8.23;3.47;;;;;;;;;;2073617;28;20173;-52
2022/06/19 02:43:23;;;;;;;5.93;3.15;;;;;;;;;;2073267;28;20184;-53
2022/06/19 02:44:29;;;;;;;7.97;3.60;;;;;;;;;;2072094;28;20251;-54
2022/06/19 02:45:33;;;;;;;9.63;4.03;;;;;;;;;;2072821;28;20253;-50
2022/06/19 02:46:33;;;;;;;9.23;3.70;;;;;;;;;;2072987;28;20212;-56
2022/06/19 02:47:35;;;;;;;8.18;3.50;;;;;;;;;;2073247;28;20196;-54
2022/06/19 02:48:35;;;;;;;8.27;3.38;;;;;;;;;;2073322;28;20245;-50
2022/06/19 02:49:36;;;;;;;7.22;3.78;;;;;;;;;;2072828;28;20176;-57
2022/06/19 02:50:42;;;;;;;8.18;3.60;;;;;;;;;;2080778;28;20201;-52
2022/06/19 02:51:42;;;;;;;5.03;3.45;;;;;;;;;;2072144;28;20173;-53
2022/06/19 02:52:42;;;;;;;10.55;3.80;;;;;;;;;;2064717;28;20200;-55
2022/06/19 02:53:43;;;;;;;8.80;3.42;;;;;;;;;;2068368;28;20498;-51
2022/06/19 02:54:43;;;;;;;7.80;3.35;;;;;;;;;;2072672;28;20188;-51
2022/06/19 02:55:43;;;;;;;5.38;3.08;;;;;;;;;;2073004;28;20161;-52
2022/06/19 02:56:44;;;;;;;8.25;3.78;;;;;;;;;;2073399;28;20173;-55
2022/06/19 02:57:44;;;;;;;7.38;3.65;;;;;;;;;;2073506;28;20466;-58
2022/06/19 02:58:44;;;;;;;7.53;3.08;;;;;;;;;;2073447;28;20166;-52
2022/06/19 02:59:45;;;;;;;8.23;3.40;;;;;;;;;;2073344;28;20235;-53
2022/06/19 03:00:46;;;;;;;12.88;4.07;;;;;;;;;;2073654;28;20173;-54
2022/06/19 03:01:46;;;;;;;7.93;3.28;;;;;;;;;;2073451;28;20211;-54
2022/06/19 03:02:48;;;;;;;8.80;3.53;;;;;;;;;;2073103;28;20680;-51
2022/06/19 03:03:49;;;;;;;8.35;3.72;;;;;;;;;;2072227;28;20177;-51
2022/06/19 03:04:56;;;;;;;10.85;3.25;;;;;;;;;;2072406;28;20176;-52
2022/06/19 03:05:57;;;;;;;11.20;3.72;;;;;;;;;;2073459;28;20173;-55
2022/06/19 03:06:57;;;;;;;9.32;3.47;;;;;;;;;;2073504;28;20206;-54
2022/06/19 03:07:57;;;;;;;9.07;3.70;;;;;;;;;;2073326;28;20173;-52
2022/06/19 03:08:58;;;;;;;7.65;3.50;;;;;;;;;;2073463;28;20660;-55
2022/06/19 03:09:58;;;;;;;9.73;3.97;;;;;;;;;;2073025;28;20157;-53
2022/06/19 03:10:58;;;;;;;9.02;3.80;;;;;;;;;;2072917;28;20185;-54
2022/06/19 03:11:59;;;;;;;9.38;3.72;;;;;;;;;;2072940;28;20161;-54
2022/06/19 03:12:59;;;;;;;7.70;4.60;;;;;;;;;;2073335;28;20605;-56
2022/06/19 03:14:00;;;;;;;8.70;3.72;;;;;;;;;;2072208;28;20223;-53
2022/06/19 03:15:00;;;;;;;12.85;5.07;;;;;;;;;;2073257;28;20541;-54
2022/06/19 03:16:02;;;;;;;6.95;3.55;;;;;;;;;;2073361;28;20212;-50
2022/06/19 03:17:03;;;;;;;12.65;4.47;;;;;;;;;;2073381;28;20184;-48
2022/06/19 03:18:03;;;;;;;8.80;4.18;;;;;;;;;;2073410;28;20666;-53
2022/06/19 03:19:04;;;;;;;12.23;3.78;;;;;;;;;;2072273;28;20161;-52
2022/06/19 03:20:05;;;;;;;11.88;4.03;;;;;;;;;;2072757;28;20176;-54
2022/06/19 03:21:05;;;;;;;6.05;3.83;;;;;;;;;;2073239;28;20630;-52
2022/06/19 03:22:06;;;;;;;13.18;4.15;;;;;;;;;;2064498;28;20178;-52
2022/06/19 03:23:06;;;;;;;13.43;4.32;;;;;;;;;;2064184;28;20625;-53
2022/06/19 03:24:06;;;;;;;10.88;4.00;;;;;;;;;;2079472;28;20200;-53
2022/06/19 03:25:07;;;;;;;8.52;4.10;;;;;;;;;;2080927;28;20636;-53
2022/06/19 03:26:07;;;;;;;10.15;4.00;;;;;;;;;;2073214;28;20220;-50
2022/06/19 03:27:09;;;;;;;10.88;3.95;;;;;;;;;;2072449;28;20177;-56
2022/06/19 03:28:10;;;;;;;11.43;4.13;;;;;;;;;;2072814;28;20161;-50
2022/06/19 03:29:10;;;;;;;9.30;3.83;;;;;;;;;;2072949;28;20680;-57
2022/06/19 03:30:12;;;;;;;9.57;4.32;;;;;;;;;;2073197;28;20169;-55
2022/06/19 03:31:16;;;;;;;9.48;4.38;;;;;;;;;;2073153;28;20905;-53
2022/06/19 03:32:17;;;;;;;9.48;3.70;;;;;;;;;;2073082;28;20264;-52
2022/06/19 03:33:17;;;;;;;8.57;4.00;;;;;;;;;;2073228;28;20181;-51
2022/06/19 03:34:18;;;;;;;10.18;4.30;;;;;;;;;;2063070;28;20173;-51
2022/06/19 03:35:18;;;;;;;7.55;3.92;;;;;;;;;;2064124;28;20181;-53
2022/06/19 03:36:19;;;;;;;14.05;4.40;;;;;;;;;;2073080;28;20169;-58
2022/06/19 03:37:19;;;;;;;11.90;4.22;;;;;;;;;;2073205;28;20212;-55
2022/06/19 03:38:21;;;;;;;12.60;4.15;;;;;;;;;;2073101;28;20524;-54
2022/06/19 03:39:21;;;;;;;11.75;4.30;;;;;;;;;;2073198;28;20225;-52
2022/06/19 03:40:22;;;;;;;11.60;3.78;;;;;;;;;;2072843;28;20188;-54
2022/06/19 03:41:22;;;;;;;15.73;4.30;;;;;;;;;;2072941;28;20175;-53
2022/06/19 03:42:22;;;;;;;9.43;3.75;;;;;;;;;;2073089;28;20188;-53
2022/06/19 03:43:23;;;;;;;14.15;4.40;;;;;;;;;;2073044;28;20161;-54
2022/06/19 03:44:23;;;;;;;11.88;4.63;;;;;;;;;;2072168;28;20235;-54
2022/06/19 03:45:23;;;;;;;10.80;4.47;;;;;;;;;;2072386;28;20236;-55
2022/06/19 03:46:24;;;;;;;9.30;4.40;;;;;;;;;;2072725;28;20207;-54
2022/06/19 03:47:25;;;;;;;11.30;4.90;;;;;;;;;;2073142;28;20700;-56
2022/06/19 03:48:25;;;;;;;11.35;4.28;;;;;;;;;;2073027;28;20548;-55
2022/06/19 03:49:26;;;;;;;8.57;3.80;;;;;;;;;;2073099;28;20173;-54
2022/06/19 03:50:27;;;;;;;13.45;4.85;;;;;;;;;;2073097;28;20165;-52
2022/06/19 03:51:27;;;;;;;8.65;3.72;;;;;;;;;;2073114;28;20169;-55
2022/06/19 03:52:28;;;;;;;13.18;4.53;;;;;;;;;;2073353;28;20192;-52
2022/06/19 03:53:28;;;;;;;13.32;4.85;;;;;;;;;;2072279;28;20215;-54
2022/06/19 03:54:28;;;;;;;7.25;4.05;;;;;;;;;;2071678;28;20189;-48
2022/06/19 03:55:29;;;;;;;11.45;4.38;;;;;;;;;;2072424;28;20215;-50
2022/06/19 03:56:31;;;;;;;12.77;3.65;;;;;;;;;;2072420;28;20552;-53
2022/06/19 03:57:31;;;;;;;11.27;4.18;;;;;;;;;;2073471;28;20256;-54
2022/06/19 03:58:47;;;;;;;8.73;4.20;;;;;;;;;;2072925;28;20601;-58
2022/06/19 03:59:48;;;;;;;11.55;4.40;;;;;;;;;;2072966;28;20280;-53
2022/06/19 04:00:48;;;;;;;10.77;4.57;;;;;;;;;;2072311;28;20177;-53
2022/06/19 04:01:48;;;;;;;9.77;3.85;;;;;;;;;;2072672;28;20640;-55
2022/06/19 04:02:49;;;;;;;10.07;3.97;;;;;;;;;;2073080;28;20181;-55
2022/06/19 04:03:50;;;;;;;12.02;3.65;;;;;;;;;;2072922;28;20173;-55
2022/06/19 04:04:50;;;;;;;9.15;4.07;;;;;;;;;;2071508;28;20263;-54
2022/06/19 04:05:51;;;;;;;11.68;3.90;;;;;;;;;;2072428;28;20518;-54
2022/06/19 04:06:51;;;;;;;13.07;4.32;;;;;;;;;;2072312;28;20175;-53
2022/06/19 04:07:52;;;;;;;15.93;4.28;;;;;;;;;;2064215;28;20173;-52
2022/06/19 04:08:52;;;;;;;9.70;4.03;;;;;;;;;;2072285;28;20199;-53
2022/06/19 04:09:57;;;;;;;12.77;4.07;;;;;;;;;;2072877;28;20173;-54
2022/06/19 04:10:58;;;;;;;7.97;3.67;;;;;;;;;;2073015;28;20173;-56
2022/06/19 04:11:58;;;;;;;7.63;3.55;;;;;;;;;;2080529;28;20168;-53
2022/06/19 04:12:58;;;;;;;10.77;3.75;;;;;;;;;;2080467;28;20160;-54
2022/06/19 04:13:59;;;;;;;9.52;3.60;;;;;;;;;;2072365;28;20243;-51
2022/06/19 04:14:59;;;;;;;11.18;3.65;;;;;;;;;;2072772;28;20169;-53
2022/06/19 04:16:00;;;;;;;11.70;3.80;;;;;;;;;;2080623;28;20173;-54
2022/06/19 04:17:01;;;;;;;14.35;4.40;;;;;;;;;;2080362;28;20866;-54
2022/06/19 04:18:01;;;;;;;13.38;3.88;;;;;;;;;;2073182;28;20175;-53
2022/06/19 04:19:03;;;;;;;11.68;4.03;;;;;;;;;;2072788;28;20231;-52
2022/06/19 04:20:04;;;;;;;13.05;3.70;;;;;;;;;;2073101;28;20176;-55
2022/06/19 04:21:05;;;;;;;8.23;3.63;;;;;;;;;;2073728;28;20207;-52
2022/06/19 04:22:05;;;;;;;11.52;4.07;;;;;;;;;;2074307;28;20169;-57
2022/06/19 04:23:09;;;;;;;11.02;3.13;;;;;;;;;;2074570;28;20546;-53
2022/06/19 04:24:10;;;;;;;9.77;3.88;;;;;;;;;;2073425;28;20712;-58
2022/06/19 04:25:14;;;;;;;13.65;3.88;;;;;;;;;;2074561;28;20636;-50
2022/06/19 04:26:15;;;;;;;14.07;4.05;;;;;;;;;;2074630;28;20216;-52
2022/06/19 04:27:15;;;;;;;8.38;3.13;;;;;;;;;;2074565;28;20732;-51
2022/06/19 04:28:17;;;;;;;10.65;3.80;;;;;;;;;;2069294;28;20255;-56
2022/06/19 04:29:17;;;;;;;14.60;4.07;;;;;;;;;;2072842;28;20705;-52
2022/06/19 04:30:18;;;;;;;12.73;3.80;;;;;;;;;;2074723;28;20185;-55
2022/06/19 04:31:18;;;;;;;12.25;3.83;;;;;;;;;;2074637;28;20153;-54
2022/06/19 04:32:18;;;;;;;10.20;4.18;;;;;;;;;;2074446;28;20192;-54
2022/06/19 04:33:20;;;;;;;9.70;3.47;;;;;;;;;;2075044;28;20204;-51
2022/06/19 04:34:20;;;;;;;13.60;4.40;;;;;;;;;;2073710;28;20173;-53
2022/06/19 04:35:20;;;;;;;11.07;4.10;;;;;;;;;;2074884;28;20176;-54
2022/06/19 04:36:22;;;;;;;11.63;3.85;;;;;;;;;;2074852;28;20176;-55
2022/06/19 04:37:22;;;;;;;10.57;3.55;;;;;;;;;;2074978;28;20219;-53
2022/06/19 04:38:23;;;;;;;7.53;3.10;;;;;;;;;;2075024;28;20176;-55
2022/06/19 04:39:23;;;;;;;13.43;3.95;;;;;;;;;;2074620;28;20243;-55
2022/06/19 04:40:28;;;;;;;9.77;4.15;;;;;;;;;;2074612;28;20204;-55
2022/06/19 04:41:28;;;;;;;9.38;3.63;;;;;;;;;;2074575;28;20165;-53
2022/06/19 04:42:29;;;;;;;7.25;3.67;;;;;;;;;;2074715;28;20201;-51
2022/06/19 04:43:30;;;;;;;10.88;3.95;;;;;;;;;;2074824;28;20165;-50
2022/06/19 04:44:30;;;;;;;15.00;3.78;;;;;;;;;;2073088;28;20185;-50
2022/06/19 04:45:31;;;;;;;9.07;3.58;;;;;;;;;;2074174;28;20188;-50
2022/06/19 04:46:31;;;;;;;10.45;3.60;;;;;;;;;;2074028;28;20626;-54
2022/06/19 04:47:32;;;;;;;8.30;3.65;;;;;;;;;;2075306;28;20203;-53
2022/06/19 04:48:33;;;;;;;9.90;4.03;;;;;;;;;;2074839;28;20276;-54
2022/06/19 04:49:33;;;;;;;9.52;4.03;;;;;;;;;;2066837;28;20178;-54
2022/06/19 04:50:34;;;;;;;10.70;3.65;;;;;;;;;;2073714;28;20715;-55
2022/06/19 04:51:34;;;;;;;10.45;4.10;;;;;;;;;;2073863;28;20175;-54
2022/06/19 04:52:34;;;;;;;12.85;3.97;;;;;;;;;;2074347;28;20316;-55
2022/06/19 04:53:37;;;;;;;11.02;3.75;;;;;;;;;;2074324;28;20173;-53
2022/06/19 04:54:39;;;;;;;8.82;3.88;;;;;;;;;;2073146;28;20181;-58
2022/06/19 04:55:39;;;;;;;7.60;3.40;;;;;;;;;;2074556;28;20181;-55
2022/06/19 04:56:40;;;;;;;7.97;4.00;;;;;;;;;;2074364;28;20165;-55
2022/06/19 04:57:40;;;;;;;8.82;3.33;;;;;;;;;;2073763;28;20207;-54
2022/06/19 04:58:41;;;;;;;11.07;4.20;;;;;;;;;;2074661;28;20284;-53
2022/06/19 04:59:41;;;;;;;10.77;3.83;;;;;;;;;;2074284;28;20208;-55
2022/06/19 05:00:41;;;;;;;9.23;3.70;;;;;;;;;;2074291;28;20252;-57
2022/06/19 05:01:42;;;;;;;9.43;3.50;;;;;;;;;;2081982;28;20180;-54
2022/06/19 05:02:42;;;;;;;10.75;3.75;;;;;;;;;;2075118;28;20296;-56
2022/06/19 05:03:42;;;;;;;9.35;4.13;;;;;;;;;;2066812;28;20253;-56
2022/06/19 05:04:43;;;;;;;7.95;3.50;;;;;;;;;;2073378;28;20680;-53
2022/06/19 05:05:43;;;;;;;13.57;4.07;;;;;;;;;;2074401;28;20248;-53
2022/06/19 05:06:43;;;;;;;7.45;3.53;;;;;;;;;;2074657;28;20166;-51
2022/06/19 05:07:44;;;;;;;14.25;4.10;;;;;;;;;;2074362;28;20546;-52
2022/06/19 05:08:44;;;;;;;8.85;3.90;;;;;;;;;;2074132;28;20584;-53
2022/06/19 05:09:44;;;;;;;9.43;4.15;;;;;;;;;;2074086;28;20595;-53
2022/06/19 05:10:45;;;;;;;14.27;3.92;;;;;;;;;;2074006;28;20165;-54
2022/06/19 05:11:45;;;;;;;11.77;3.65;;;;;;;;;;2073220;28;20721;-51
2022/06/19 05:12:46;;;;;;;12.35;3.92;;;;;;;;;;2073515;28;20212;-52
2022/06/19 05:13:46;;;;;;;12.57;4.32;;;;;;;;;;2074026;28;20173;-52
2022/06/19 05:14:47;;;;;;;14.98;4.15;;;;;;;;;;2072689;28;20252;-54
2022/06/19 05:15:48;;;;;;;16.67;4.35;;;;;;;;;;2073693;28;20234;-53
2022/06/19 05:16:49;;;;;;;13.32;4.03;;;;;;;;;;2074290;28;20179;-52
2022/06/19 05:17:50;;;;;;;9.02;3.58;;;;;;;;;;2074151;28;20169;-50
2022/06/19 05:18:51;;;;;;;13.70;3.85;;;;;;;;;;2073932;28;20179;-53
2022/06/19 05:19:51;;;;;;;9.00;3.88;;;;;;;;;;2074130;28;20176;-54
2022/06/19 05:20:55;;;;;;;14.80;3.92;;;;;;;;;;2074093;28;20502;-51
2022/06/19 05:21:59;;;;;;;9.23;3.40;;;;;;;;;;2074031;28;20185;-55
2022/06/19 05:22:59;;;;;;;10.85;3.47;;;;;;;;;;2074155;28;20203;-54
2022/06/19 05:23:59;;;;;;;7.82;3.30;;;;;;;;;;2072604;28;20552;-56
2022/06/19 05:25:00;;;;;;;13.95;3.47;;;;;;;;;;2074201;28;20179;-53
2022/06/19 05:26:26;;;;;;;10.27;3.47;;;;;;;;;;2074101;28;20176;-56
2022/06/19 05:27:27;;;;;;;15.80;4.03;;;;;;;;;;2072954;28;20192;-50
2022/06/19 05:28:29;;;;;;;8.52;3.90;;;;;;;;;;2074403;28;20252;-54
2022/06/19 05:29:30;;;;;;;9.80;3.35;;;;;;;;;;2073850;28;20176;-55
2022/06/19 05:30:30;;;;;;;8.75;3.35;;;;;;;;;;2074309;28;20212;-53
2022/06/19 05:31:32;;;;;;;9.85;3.78;;;;;;;;;;2074124;28;20184;-51
2022/06/19 05:32:32;;;;;;;11.60;4.07;;;;;;;;;;2074027;28;20247;-53
2022/06/19 05:33:33;;;;;;;10.77;3.70;;;;;;;;;;2074234;28;20607;-54
2022/06/19 05:34:34;;;;;;;8.95;3.83;;;;;;;;;;2073074;28;20426;-53
2022/06/19 05:35:34;;;;;;;7.35;3.17;;;;;;;;;;2074203;28;20249;-56
2022/06/19 05:36:35;;;;;;;10.18;3.95;;;;;;;;;;2073956;28;20204;-50
2022/06/19 05:37:35;;;;;;;11.18;3.63;;;;;;;;;;2074267;28;20177;-54
2022/06/19 05:38:36;;;;;;;10.20;4.05;;;;;;;;;;2073978;28;20169;-55
2022/06/19 05:39:36;;;;;;;9.63;3.65;;;;;;;;;;2073811;28;20616;-57
2022/06/19 05:40:36;;;;;;;7.93;3.10;;;;;;;;;;2073800;28;20506;-57
2022/06/19 05:41:40;;;;;;;7.93;3.80;;;;;;;;;;2074063;28;20231;-52
2022/06/19 05:42:40;;;;;;;9.80;3.40;;;;;;;;;;2073686;28;20197;-57
2022/06/19 05:43:41;;;;;;;8.18;3.08;;;;;;;;;;2074133;28;20169;-54
2022/06/19 05:44:41;;;;;;;9.68;3.22;;;;;;;;;;2071968;28;20295;-55
2022/06/19 05:45:48;;;;;;;8.13;3.42;;;;;;;;;;2073292;28;20264;-55
2022/06/19 05:46:49;;;;;;;8.70;3.30;;;;;;;;;;2073869;28;20688;-57
2022/06/19 05:47:49;;;;;;;10.30;3.08;;;;;;;;;;2074016;28;20260;-54
2022/06/19 05:48:50;;;;;;;9.38;3.25;;;;;;;;;;2073763;28;20172;-53
2022/06/19 05:49:50;;;;;;;10.50;3.20;;;;;;;;;;2071752;28;20180;-52
2022/06/19 05:51:00;;;;;;;10.15;3.90;;;;;;;;;;2065969;28;20241;-51
2022/06/19 05:52:02;;;;;;;7.43;3.15;;;;;;;;;;2065897;28;20157;-57
2022/06/19 05:53:02;;;;;;;9.40;3.78;;;;;;;;;;2065696;28;20165;-51
2022/06/19 05:54:03;;;;;;;8.80;3.25;;;;;;;;;;2067142;28;20252;-54
2022/06/19 05:55:03;;;;;;;8.10;2.97;;;;;;;;;;2073809;28;20181;-57
2022/06/19 05:56:03;;;;;;;8.45;2.78;;;;;;;;;;2073389;28;20235;-53
2022/06/19 05:57:04;;;;;;;8.98;3.22;;;;;;;;;;2072672;28;20176;-53
2022/06/19 05:58:04;;;;;;;6.03;2.72;;;;;;;;;;2073957;28;20195;-55
2022/06/19 05:59:04;;;;;;;8.00;2.70;;;;;;;;;;2073761;28;20180;-54
2022/06/19 06:00:08;;;;;;;8.27;3.22;;;;;;;;;;2073804;28;20171;-52
2022/06/19 06:01:13;;;;;;;4.15;2.80;;;;;;;;;;2073959;28;20180;-58
2022/06/19 06:02:14;;;;;;;8.05;2.90;;;;;;;;;;2074130;28;20181;-53
2022/06/19 06:03:16;;;;;;;9.35;3.00;;;;;;;;;;2073392;28;20172;-55
2022/06/19 06:04:17;;;;;;;7.00;3.10;;;;;;;;;;2072160;28;20216;-54
2022/06/19 06:05:17;;;;;;;9.40;2.67;;;;;;;;;;2074142;28;20464;-55
2022/06/19 06:06:19;;;;;;;7.72;3.17;;;;;;;;;;2074536;28;20185;-53
2022/06/19 06:07:19;;;;;;;8.40;3.13;;;;;;;;;;2074722;28;20172;-54
2022/06/19 06:08:19;;;;;;;9.57;3.25;;;;;;;;;;2075769;28;20641;-52
2022/06/19 06:09:20;;;;;;;9.15;3.35;;;;;;;;;;2075228;28;20168;-49
2022/06/19 06:10:20;;;;;;;8.55;3.10;;;;;;;;;;2075137;28;20165;-58